EYPA

Palanga International Airport

Palanga, Lithuania
METAR EYPA 171150Z 15007KT 9999 OVC028 M01/M02 Q1023 R19/1///95
Observed Flight Rules
Dec-17 @ 11:50 UTC (17 minutes ago) Marginal Visual Flight Rules
Wind Visibility Clouds
150° at 7 knots 10,000+ meters
  • Overcast at 2,800' AGL
Temperatures Readings
Current -1°C / 30°F
Dewpoint -2°C / 28°F
Humidity 93%
Altimeter 30.21" Hg
Pressure 1023 hPa
Elevation 10
METAR EYPA 171150Z 15007KT 9999 OVC028 M01/M02 Q1023 R19/1///95
Observed Flight Rules
Dec-17 @ 11:50 UTC
(17 minutes ago)
MVFR
Wind Visibility
150° at 7 knots 10,000+ meters
Clouds
  • Overcast at 2,800' AGL
Temperature Dewpoint
-1°C / 30°F -2°C / 28°F
Humidity Altimeter Pressure
93% 30.21" Hg 1023 hPa